Time;durP1;ratioP1;P1;durP2;ratioP2;P2;SDS_P1;SDS_P2;PMS_P1;PMS_P2;Temp;Humidity;BMP_temperature;BMP_pressure;BME280_temperature;BME280_humidity;BME280_pressure;Samples;Min_cycle;Max_cycle;Signal;HPM_P1;HPM_P2
2023/05/13 00:01:37;;;;;;;;;;;;;;;8.69;61.04;102282.87;107538;1259;72571;-85
2023/05/13 00:04:11;;;;;;;;;;;;;;;8.66;61.08;102283.44;107483;1254;59165;-85
2023/05/13 00:06:38;;;;;;;;;;;;;;;8.63;61.15;102281.84;107402;1257;124289;-85
2023/05/13 00:09:06;;;;;;;;;;;;;;;8.61;61.20;102280.15;107395;1254;73957;-85
2023/05/13 00:11:47;;;;;;;;;;;;;;;8.59;61.21;102282.30;107658;1253;123898;-85
2023/05/13 00:14:20;;;;;;;;;;;;;;;8.56;61.27;102280.06;107685;1254;72694;-85
2023/05/13 00:16:47;;;;;;;;;;;;;;;8.54;61.43;102279.95;107422;1256;60684;-86
2023/05/13 00:19:14;;;;;;;;;;;;;;;8.53;61.41;102283.55;107144;1254;268462;-86
2023/05/13 00:24:54;;;;;;;;;;;;;;;8.48;61.50;102286.02;107373;1256;123613;-86
2023/05/13 00:27:34;;;;;;;;;;;;;;;8.45;61.56;102284.31;107529;1254;71446;-86
2023/05/13 00:30:05;;;;;;;;;;;;;;;8.42;61.76;102281.15;107485;1254;123569;-88
2023/05/13 00:32:32;;;;;;;;;;;;;;;8.39;61.85;102281.31;107830;1254;60833;-87
2023/05/13 00:35:02;;;;;;;;;;;;;;;8.37;61.86;102279.77;107696;1256;123905;-88
2023/05/13 00:37:42;;;;;;;;;;;;;;;8.34;61.95;102280.16;107705;1254;67088;-89
2023/05/13 00:40:21;;;;;;;;;;;;;;;8.32;62.03;102281.45;107838;1256;71124;-87
2023/05/13 00:42:48;;;;;;;;;;;;;;;8.30;62.18;102282.55;107467;1258;123822;-87
2023/05/13 00:45:24;;;;;;;;;;;;;;;8.28;62.25;102282.60;107689;1258;60019;-86
2023/05/13 00:47:51;;;;;;;;;;;;;;;8.27;62.35;102283.23;107545;1254;124364;-87
2023/05/13 00:50:25;;;;;;;;;;;;;;;8.26;62.41;102284.04;107572;1254;66785;-87
2023/05/13 00:52:52;;;;;;;;;;;;;;;8.24;62.34;102281.11;107451;1254;73033;-87
2023/05/13 00:55:20;;;;;;;;;;;;;;;8.22;62.40;102280.67;107519;1254;61346;-88
2023/05/13 00:57:47;;;;;;;;;;;;;;;8.20;62.53;102283.48;107514;1252;60518;-87
2023/05/13 01:00:36;;;;;;;;;;;;;;;8.19;62.62;102289.36;107398;1254;123664;-87
2023/05/13 01:03:27;;;;;;;;;;;;;;;8.16;62.71;102291.88;107621;1253;65650;-88
2023/05/13 01:06:00;;;;;;;;;;;;;;;8.15;62.71;102291.29;107343;1253;123517;-87
2023/05/13 01:08:38;;;;;;;;;;;;;;;8.14;62.86;102293.29;107846;1256;60206;-87
2023/05/13 01:11:32;;;;;;;;;;;;;;;8.12;62.87;102290.41;107582;1253;123782;-86
2023/05/13 01:14:01;;;;;;;;;;;;;;;8.11;62.86;102292.95;107549;1254;73738;-87
2023/05/13 01:16:31;;;;;;;;;;;;;;;8.09;63.07;102291.07;107404;1252;66291;-85
2023/05/13 01:18:58;;;;;;;;;;;;;;;8.07;63.14;102292.54;107494;1254;123672;-87
2023/05/13 01:21:25;;;;;;;;;;;;;;;8.06;63.21;102297.37;107504;1253;60520;-88
2023/05/13 01:24:01;;;;;;;;;;;;;;;8.04;63.15;102300.20;107483;1253;122682;-87
2023/05/13 01:26:37;;;;;;;;;;;;;;;8.02;63.28;102300.27;107456;1254;74422;-87
2023/05/13 01:29:04;;;;;;;;;;;;;;;8.00;63.31;102299.12;107722;1253;65487;-87
2023/05/13 01:31:50;;;;;;;;;;;;;;;8.00;63.50;102298.91;107667;1254;70808;-87
2023/05/13 01:34:18;;;;;;;;;;;;;;;7.98;63.44;102301.23;107482;1254;60441;-87
2023/05/13 01:37:00;;;;;;;;;;;;;;;7.96;63.49;102299.39;107485;1254;60447;-86
2023/05/13 01:39:46;;;;;;;;;;;;;;;7.94;63.49;102301.70;107684;1254;73318;-87
2023/05/13 01:42:14;;;;;;;;;;;;;;;7.92;63.58;102301.08;107696;1254;67042;-86
2023/05/13 01:44:41;;;;;;;;;;;;;;;7.90;63.60;102303.96;107666;1253;72731;-87
2023/05/13 01:47:24;;;;;;;;;;;;;;;7.88;63.68;102303.79;107508;1254;123669;-87
2023/05/13 01:49:57;;;;;;;;;;;;;;;7.86;63.84;102303.66;107652;1254;60351;-87
2023/05/13 01:52:29;;;;;;;;;;;;;;;7.84;63.89;102302.17;107824;1254;73846;-87
2023/05/13 01:55:03;;;;;;;;;;;;;;;7.83;63.91;102304.02;107337;1254;123725;-87
2023/05/13 01:57:48;;;;;;;;;;;;;;;7.82;63.98;102303.63;107546;1254;72799;-87
2023/05/13 02:00:21;;;;;;;;;;;;;;;7.82;64.04;102303.23;107142;1255;123689;-88
2023/05/13 02:02:49;;;;;;;;;;;;;;;7.81;64.08;102308.92;107684;1253;60097;-87
2023/05/13 02:05:34;;;;;;;;;;;;;;;7.79;64.24;102311.13;107939;1254;123859;-88
2023/05/13 02:08:01;;;;;;;;;;;;;;;7.78;64.24;102313.00;107720;1256;67213;-87
2023/05/13 02:10:36;;;;;;;;;;;;;;;7.77;64.23;102309.58;107529;1254;71238;-87
2023/05/13 02:13:22;;;;;;;;;;;;;;;7.76;64.29;102312.67;107446;1254;124180;-87
2023/05/13 02:15:57;;;;;;;;;;;;;;;7.75;64.41;102309.83;107420;1254;60409;-85
2023/05/13 02:18:24;;;;;;;;;;;;;;;7.75;64.46;102312.96;107428;1254;123581;-85
2023/05/13 02:20:51;;;;;;;;;;;;;;;7.74;64.46;102311.17;107710;1254;67024;-85
2023/05/13 02:23:20;;;;;;;;;;;;;;;7.74;64.52;102311.52;107482;1254;124146;-85
2023/05/13 02:25:47;;;;;;;;;;;;;;;7.74;64.60;102312.02;107589;1259;60325;-87
2023/05/13 02:28:15;;;;;;;;;;;;;;;7.74;64.70;102312.02;107639;1253;60432;-86
2023/05/13 02:30:43;;;;;;;;;;;;;;;7.74;64.62;102308.36;107803;1253;123430;-86
2023/05/13 02:33:17;;;;;;;;;;;;;;;7.75;64.67;102310.34;107845;1254;66831;-87
2023/05/13 02:35:50;;;;;;;;;;;;;;;7.75;64.72;102307.55;107446;1259;123874;-86
2023/05/13 02:38:23;;;;;;;;;;;;;;;7.76;64.71;102312.48;107766;1254;59634;-86
2023/05/13 02:41:02;;;;;;;;;;;;;;;7.76;64.74;102307.27;107862;1254;60630;-87
2023/05/13 02:43:30;;;;;;;;;;;;;;;7.75;64.86;102312.30;107438;1253;75238;-86
2023/05/13 02:45:59;;;;;;;;;;;;;;;7.77;64.83;102315.75;107499;1254;65735;-86
2023/05/13 02:48:35;;;;;;;;;;;;;;;7.79;64.92;102316.36;107355;1257;123536;-86
2023/05/13 02:51:08;;;;;;;;;;;;;;;7.80;64.84;102317.66;107477;1255;61007;-86
2023/05/13 02:53:35;;;;;;;;;;;;;;;7.82;65.04;102310.77;107558;1253;124039;-87
2023/05/13 02:56:05;;;;;;;;;;;;;;;7.84;64.90;102310.89;107853;1254;73844;-85
2023/05/13 02:58:37;;;;;;;;;;;;;;;7.85;65.05;102309.39;108099;1254;65612;-86
2023/05/13 03:01:04;;;;;;;;;;;;;;;7.87;65.06;102306.16;107847;1254;123855;-88
2023/05/13 03:03:31;;;;;;;;;;;;;;;7.89;65.12;102306.85;108408;1254;59196;-87
2023/05/13 03:05:58;;;;;;;;;;;;;;;7.93;65.15;102307.27;107938;1253;123693;-86
2023/05/13 03:08:26;;;;;;;;;;;;;;;7.99;65.16;102310.56;108089;1258;73641;-87
2023/05/13 03:11:04;;;;;;;;;;;;;;;8.05;65.10;102312.36;107750;1253;65907;-87
2023/05/13 03:13:53;;;;;;;;;;;;;;;8.13;65.15;102313.52;107695;1253;72687;-86
2023/05/13 03:16:28;;;;;;;;;;;;;;;8.23;65.15;102315.34;107512;1256;58419;-87
2023/05/13 03:19:14;;;;;;;;;;;;;;;8.34;65.09;102309.71;107540;1253;123641;-87
2023/05/13 03:21:41;;;;;;;;;;;;;;;8.46;65.01;102313.41;107610;1254;72432;-87
2023/05/13 03:24:08;;;;;;;;;;;;;;;8.57;64.91;102312.30;107380;1254;124389;-89
2023/05/13 03:26:37;;;;;;;;;;;;;;;8.72;64.82;102308.41;107501;1254;73871;-85
2023/05/13 03:29:10;;;;;;;;;;;;;;;8.88;64.63;102313.19;107481;1253;123934;-86
2023/05/13 03:31:37;;;;;;;;;;;;;;;9.05;64.49;102311.33;107474;1257;60367;-85
2023/05/13 03:34:04;;;;;;;;;;;;;;;9.25;64.37;102317.37;107575;1254;73828;-86
2023/05/13 03:36:40;;;;;;;;;;;;;;;9.57;64.31;102319.13;107499;1254;124694;-85
2023/05/13 03:39:15;;;;;;;;;;;;;;;10.42;65.08;102317.58;107437;1259;70533;-85
2023/05/13 03:41:54;;;;;;;;;;;;;;;11.94;64.92;102308.47;107361;1254;124080;-86
2023/05/13 03:44:23;;;;;;;;;;;;;;;13.48;63.33;102309.70;107487;1253;60582;-84
2023/05/13 03:46:56;;;;;;;;;;;;;;;14.82;61.78;102305.11;107672;1254;73890;-87
2023/05/13 03:49:23;;;;;;;;;;;;;;;16.07;59.74;102301.40;107423;1257;123735;-87
2023/05/13 03:51:50;;;;;;;;;;;;;;;17.12;57.69;102300.00;107591;1254;72756;-88
2023/05/13 03:54:17;;;;;;;;;;;;;;;18.08;56.09;102299.70;107639;1254;124322;-87
2023/05/13 03:56:54;;;;;;;;;;;;;;;19.03;54.44;102298.30;107936;1256;60497;-87
2023/05/13 03:59:30;;;;;;;;;;;;;;;19.80;52.48;102298.27;107766;1254;124049;-86
2023/05/13 04:02:05;;;;;;;;;;;;;;;20.54;50.86;102293.86;107684;1254;68243;-87
2023/05/13 04:04:32;;;;;;;;;;;;;;;21.24;49.53;102297.40;107434;1254;71046;-87
2023/05/13 04:06:59;;;;;;;;;;;;;;;21.93;48.23;102296.27;107683;1258;124329;-87
2023/05/13 04:09:52;;;;;;;;;;;;;;;22.71;47.21;102294.94;107370;1260;60981;-87
2023/05/13 04:12:20;;;;;;;;;;;;;;;23.50;45.23;102297.46;107714;1257;123942;-88
2023/05/13 04:14:59;;;;;;;;;;;;;;;23.90;43.75;102296.94;107520;1254;65850;-89
2023/05/13 04:17:26;;;;;;;;;;;;;;;24.27;42.96;102303.69;107546;1259;124076;-87
2023/05/13 04:19:58;;;;;;;;;;;;;;;24.77;41.83;102300.80;107946;1255;59169;-88
2023/05/13 04:22:29;;;;;;;;;;;;;;;25.33;40.98;102302.00;108067;1254;59553;-88
2023/05/13 04:24:56;;;;;;;;;;;;;;;25.95;40.11;102303.38;108265;1254;124029;-88
2023/05/13 04:27:23;;;;;;;;;;;;;;;26.34;38.94;102307.66;108138;1258;66713;-88
2023/05/13 04:29:51;;;;;;;;;;;;;;;26.76;38.36;102304.26;108111;1260;124303;-88
2023/05/13 04:32:20;;;;;;;;;;;;;;;27.26;37.29;102306.79;108069;1255;60461;-89
2023/05/13 04:34:48;;;;;;;;;;;;;;;27.73;36.79;102299.84;108139;1254;61157;-88
2023/05/13 04:37:17;;;;;;;;;;;;;;;28.37;35.95;102301.45;108013;1255;124295;-85
2023/05/13 04:39:45;;;;;;;;;;;;;;;29.01;35.39;102305.20;108097;1254;65882;-86
2023/05/13 04:42:12;;;;;;;;;;;;;;;29.75;34.76;102303.45;108090;1252;124301;-85
2023/05/13 04:44:39;;;;;;;;;;;;;;;30.40;33.90;102305.20;108339;1253;60686;-84
2023/05/13 04:47:08;;;;;;;;;;;;;;;30.98;32.93;102306.31;108411;1254;124199;-84
2023/05/13 04:49:36;;;;;;;;;;;;;;;31.34;32.22;102307.16;108354;1254;65278;-83
2023/05/13 04:52:03;;;;;;;;;;;;;;;31.79;31.54;102306.70;108415;1254;58717;-84
2023/05/13 04:54:44;;;;;;;;;;;;;;;32.25;30.80;102309.24;108343;1256;124178;-84
2023/05/13 04:57:12;;;;;;;;;;;;;;;32.66;30.19;102306.98;108319;1255;60441;-86
2023/05/13 04:59:55;;;;;;;;;;;;;;;33.05;29.43;102308.17;107965;1254;124284;-85
2023/05/13 05:02:24;;;;;;;;;;;;;;;33.53;29.12;102308.92;108052;1254;65238;-82
2023/05/13 05:04:52;;;;;;;;;;;;;;;34.08;28.45;102308.69;108198;1254;60562;-84
2023/05/13 05:07:19;;;;;;;;;;;;;;;34.39;27.70;102310.80;108059;1254;123863;-83
2023/05/13 05:09:47;;;;;;;;;;;;;;;34.53;27.22;102308.59;108179;1255;59750;-84
2023/05/13 05:12:16;;;;;;;;;;;;;;;34.79;26.71;102306.18;107921;1254;124569;-85
2023/05/13 05:14:42;;;;;;;;;;;;;;;35.05;26.33;102307.89;108203;1259;65319;-83
2023/05/13 05:17:09;;;;;;;;;;;;;;;35.23;25.99;102307.33;108288;1254;124892;-83
2023/05/13 05:19:36;;;;;;;;;;;;;;;35.57;25.90;102311.14;108244;1256;64930;-86
2023/05/13 05:22:03;;;;;;;;;;;;;;;35.67;25.43;102314.58;108226;1259;58588;-85
2023/05/13 05:24:30;;;;;;;;;;;;;;;35.51;24.94;102314.70;108046;1253;124415;-84
2023/05/13 05:26:57;;;;;;;;;;;;;;;35.28;24.89;102313.98;109263;1255;65392;-86
2023/05/13 05:29:25;;;;;;;;;;;;;;;35.13;24.85;102316.78;109263;1256;123944;-85
2023/05/13 05:31:54;;;;;;;;;;;;;;;35.03;24.79;102317.84;108398;1255;62527;-87
2023/05/13 05:34:21;;;;;;;;;;;;;;;33.73;24.30;102319.17;108262;1253;58520;-85
2023/05/13 05:36:48;;;;;;;;;;;;;;;31.46;24.63;102319.84;108166;1254;124116;-87
2023/05/13 05:39:15;;;;;;;;;;;;;;;29.26;25.68;102323.77;108387;1254;65261;-87
2023/05/13 05:41:42;;;;;;;;;;;;;;;27.37;26.92;102326.16;108099;1259;124357;-86
2023/05/13 05:44:12;;;;;;;;;;;;;;;25.90;28.13;102328.23;108285;1257;71378;-84
2023/05/13 05:46:39;;;;;;;;;;;;;;;24.58;29.19;102323.55;108484;1256;60205;-84
2023/05/13 05:49:07;;;;;;;;;;;;;;;23.54;30.54;102328.45;108086;1253;124967;-86
2023/05/13 05:51:34;;;;;;;;;;;;;;;22.65;31.61;102328.74;108109;1256;72554;-86
2023/05/13 05:54:01;;;;;;;;;;;;;;;21.88;32.71;102328.05;107814;1254;124615;-88
2023/05/13 05:56:28;;;;;;;;;;;;;;;21.23;33.57;102331.67;107860;1254;71048;-85
2023/05/13 05:58:55;;;;;;;;;;;;;;;20.73;34.44;102333.98;108106;1254;59695;-87
2023/05/13 06:01:23;;;;;;;;;;;;;;;20.27;35.07;102335.86;108229;1257;123945;-88
2023/05/13 06:03:50;;;;;;;;;;;;;;;19.87;35.76;102337.21;108202;1254;72663;-85
2023/05/13 06:06:17;;;;;;;;;;;;;;;19.51;36.50;102340.81;108075;1254;123848;-88
2023/05/13 06:08:44;;;;;;;;;;;;;;;19.18;36.67;102338.58;108110;1254;71371;-87
2023/05/13 06:11:11;;;;;;;;;;;;;;;18.83;36.89;102342.30;108235;1256;124018;-87
2023/05/13 06:13:38;;;;;;;;;;;;;;;18.59;37.33;102340.27;108501;1253;60415;-86
2023/05/13 06:16:05;;;;;;;;;;;;;;;18.40;37.67;102338.86;108221;1253;73856;-88
2023/05/13 06:18:32;;;;;;;;;;;;;;;18.26;38.00;102335.76;108243;1254;123909;-89
2023/05/13 06:20:59;;;;;;;;;;;;;;;18.14;38.19;102330.92;108250;1256;73001;-87
2023/05/13 06:23:26;;;;;;;;;;;;;;;18.06;38.28;102337.16;108458;1253;124390;-84
2023/05/13 06:25:53;;;;;;;;;;;;;;;17.97;38.67;102333.08;108764;1254;60561;-84
2023/05/13 06:28:20;;;;;;;;;;;;;;;17.91;38.97;102334.03;108812;1254;73263;-84
2023/05/13 06:30:47;;;;;;;;;;;;;;;17.82;39.11;102331.35;108287;1253;124189;-86
2023/05/13 06:33:14;;;;;;;;;;;;;;;17.73;39.59;102330.77;108361;1253;71361;-85
2023/05/13 06:35:48;;;;;;;;;;;;;;;17.67;39.68;102330.48;107851;1254;124604;-86
2023/05/13 06:38:18;;;;;;;;;;;;;;;17.62;39.73;102331.80;108597;1254;60325;-85
2023/05/13 06:40:45;;;;;;;;;;;;;;;17.60;39.96;102333.91;108591;1254;73700;-86
2023/05/13 06:43:15;;;;;;;;;;;;;;;17.62;40.19;102334.29;108041;1254;124043;-86
2023/05/13 06:45:43;;;;;;;;;;;;;;;17.62;39.87;102337.30;108018;1256;73185;-85
2023/05/13 06:48:11;;;;;;;;;;;;;;;17.59;39.75;102338.84;107941;1254;124684;-86
2023/05/13 06:50:38;;;;;;;;;;;;;;;17.55;39.85;102336.27;108269;1253;61126;-85
2023/05/13 06:53:08;;;;;;;;;;;;;;;17.52;40.18;102335.14;108398;1254;74674;-84
2023/05/13 06:55:40;;;;;;;;;;;;;;;17.55;40.13;102335.73;108235;1253;67343;-86
2023/05/13 06:58:07;;;;;;;;;;;;;;;17.56;39.92;102335.05;107984;1254;73233;-85
2023/05/13 07:00:37;;;;;;;;;;;;;;;17.56;39.92;102330.98;107703;1254;124035;-85
2023/05/13 07:03:17;;;;;;;;;;;;;;;17.58;39.98;102329.60;107811;1253;59536;-85
2023/05/13 07:05:54;;;;;;;;;;;;;;;17.63;39.74;102325.79;107629;1254;124425;-84
2023/05/13 07:08:21;;;;;;;;;;;;;;;17.69;39.88;102324.48;107548;1253;67023;-84
2023/05/13 07:10:51;;;;;;;;;;;;;;;17.79;39.85;102324.33;107588;1254;71367;-84
2023/05/13 07:13:19;;;;;;;;;;;;;;;17.87;39.84;102330.20;107386;1254;124616;-84
2023/05/13 07:15:46;;;;;;;;;;;;;;;17.90;39.62;102324.05;107516;1254;60191;-84
2023/05/13 07:18:32;;;;;;;;;;;;;;;17.88;39.78;102326.15;107660;1254;124538;-84
2023/05/13 07:21:01;;;;;;;;;;;;;;;17.89;39.76;102325.11;108116;1254;66010;-85
2023/05/13 07:23:28;;;;;;;;;;;;;;;17.89;40.00;102324.04;107766;1254;124383;-85
2023/05/13 07:26:02;;;;;;;;;;;;;;;17.93;40.08;102325.72;107991;1254;60276;-86
2023/05/13 07:28:30;;;;;;;;;;;;;;;18.00;40.06;102324.61;107994;1252;61746;-84
2023/05/13 07:31:11;;;;;;;;;;;;;;;18.10;40.06;102323.02;107739;1254;124617;-85
2023/05/13 07:33:44;;;;;;;;;;;;;;;18.19;39.95;102316.98;107552;1254;67294;-86
2023/05/13 07:36:11;;;;;;;;;;;;;;;18.23;39.79;102318.83;107479;1254;124070;-86
2023/05/13 07:38:38;;;;;;;;;;;;;;;18.27;39.64;102316.59;107479;1254;61209;-86
2023/05/13 07:41:05;;;;;;;;;;;;;;;18.31;40.04;102313.99;107846;1254;60463;-86
2023/05/13 07:43:33;;;;;;;;;;;;;;;18.35;40.07;102313.73;107779;1255;124211;-84
2023/05/13 07:46:07;;;;;;;;;;;;;;;18.38;40.13;102312.54;107967;1254;67016;-85
2023/05/13 07:48:35;;;;;;;;;;;;;;;18.44;40.16;102311.20;107692;1254;124951;-86
2023/05/13 07:51:10;;;;;;;;;;;;;;;18.53;40.48;102308.87;107550;1254;59708;-86
2023/05/13 07:53:53;;;;;;;;;;;;;;;18.62;40.44;102311.16;107360;1254;124455;-86
2023/05/13 07:56:29;;;;;;;;;;;;;;;18.69;40.11;102305.40;107344;1254;74688;-86
2023/05/13 07:58:58;;;;;;;;;;;;;;;18.74;39.83;102305.13;107484;1255;67068;-86
2023/05/13 08:01:26;;;;;;;;;;;;;;;18.81;39.97;102303.85;107438;1256;124445;-86
2023/05/13 08:03:54;;;;;;;;;;;;;;;18.88;39.57;102304.30;107475;1254;60551;-86
2023/05/13 08:06:21;;;;;;;;;;;;;;;18.93;39.84;102301.55;107611;1254;124449;-85
2023/05/13 08:08:47;;;;;;;;;;;;;;;18.97;39.78;102306.24;107983;1254;75196;-85
2023/05/13 08:11:15;;;;;;;;;;;;;;;19.02;39.80;102306.67;107940;1254;124354;-86
2023/05/13 08:13:42;;;;;;;;;;;;;;;19.08;39.62;102302.30;107713;1254;72704;-86
2023/05/13 08:16:09;;;;;;;;;;;;;;;19.12;39.52;102300.95;108125;1257;61372;-87
2023/05/13 08:18:38;;;;;;;;;;;;;;;19.15;39.23;102303.46;108249;1253;124097;-87
2023/05/13 08:21:05;;;;;;;;;;;;;;;19.19;39.31;102305.48;108196;1254;73489;-87
2023/05/13 08:23:33;;;;;;;;;;;;;;;19.25;39.26;102303.79;108178;1254;124964;-87
2023/05/13 08:26:01;;;;;;;;;;;;;;;19.32;39.27;102302.11;107966;1254;72436;-87
2023/05/13 08:28:29;;;;;;;;;;;;;;;19.37;38.99;102299.50;107563;1254;60559;-87
2023/05/13 08:31:06;;;;;;;;;;;;;;;19.42;38.99;102299.74;107540;1253;124167;-87
2023/05/13 08:33:40;;;;;;;;;;;;;;;19.49;39.00;102301.27;107687;1254;74672;-87
2023/05/13 08:36:08;;;;;;;;;;;;;;;19.57;38.71;102303.33;107648;1254;124252;-87
2023/05/13 08:38:47;;;;;;;;;;;;;;;19.65;38.51;102307.16;107895;1254;72758;-87
2023/05/13 08:41:14;;;;;;;;;;;;;;;19.70;38.69;102300.46;107785;1254;124282;-88
2023/05/13 08:43:44;;;;;;;;;;;;;;;19.75;38.80;102297.52;107838;1254;60873;-88
2023/05/13 08:46:11;;;;;;;;;;;;;;;19.81;38.82;102295.45;107508;1254;75612;-85
2023/05/13 08:48:40;;;;;;;;;;;;;;;19.85;38.72;102290.15;107459;1254;124221;-88
2023/05/13 08:51:07;;;;;;;;;;;;;;;19.89;38.31;102293.58;107582;1254;70655;-88
2023/05/13 08:53:41;;;;;;;;;;;;;;;19.95;38.31;102290.79;107907;1253;124568;-87
2023/05/13 08:56:09;;;;;;;;;;;;;;;19.99;38.52;102290.84;108021;1252;61137;-89
2023/05/13 08:58:36;;;;;;;;;;;;;;;20.03;38.58;102293.02;107435;1254;74668;-89
2023/05/13 09:01:03;;;;;;;;;;;;;;;20.06;38.58;102291.45;107409;1254;124280;-87
2023/05/13 09:03:30;;;;;;;;;;;;;;;20.09;38.81;102287.55;107969;1254;72618;-85
2023/05/13 09:05:59;;;;;;;;;;;;;;;20.12;38.50;102289.54;107941;1254;124523;-85
2023/05/13 09:08:26;;;;;;;;;;;;;;;20.10;38.39;102293.27;107697;1254;60321;-83
2023/05/13 09:10:53;;;;;;;;;;;;;;;20.07;38.28;102292.70;107774;1254;74689;-83
2023/05/13 09:13:21;;;;;;;;;;;;;;;20.06;38.13;102289.13;107656;1254;124056;-85
2023/05/13 09:15:48;;;;;;;;;;;;;;;20.10;38.28;102290.06;108060;1254;72663;-83
2023/05/13 09:18:15;;;;;;;;;;;;;;;20.15;38.05;102292.77;107765;1254;124960;-84
2023/05/13 09:20:43;;;;;;;;;;;;;;;20.16;38.16;102288.16;108150;1254;61278;-83
2023/05/13 09:23:28;;;;;;;;;;;;;;;20.19;38.20;102287.30;107935;1254;124396;-86
2023/05/13 09:25:57;;;;;;;;;;;;;;;20.24;38.15;102287.70;107940;1254;65929;-87
2023/05/13 09:28:25;;;;;;;;;;;;;;;20.25;38.21;102287.17;107789;1253;72650;-87
2023/05/13 09:30:57;;;;;;;;;;;;;;;20.28;38.11;102280.79;107565;1259;124476;-87
2023/05/13 09:33:28;;;;;;;;;;;;;;;20.32;38.16;102281.00;107896;1253;61307;-84
2023/05/13 09:35:56;;;;;;;;;;;;;;;20.33;38.16;102274.61;107692;1255;124576;-86
2023/05/13 09:38:36;;;;;;;;;;;;;;;20.37;38.18;102279.45;108127;1254;67129;-85
2023/05/13 09:41:06;;;;;;;;;;;;;;;20.43;38.09;102274.68;108232;1254;72408;-85
2023/05/13 09:43:33;;;;;;;;;;;;;;;20.44;37.84;102274.33;107896;1253;124647;-85
2023/05/13 09:46:00;;;;;;;;;;;;;;;20.44;37.67;102270.05;108368;1254;60425;-85
2023/05/13 09:48:32;;;;;;;;;;;;;;;20.46;37.76;102268.98;107784;1254;124184;-85
2023/05/13 09:50:59;;;;;;;;;;;;;;;20.48;37.57;102267.23;108339;1254;65786;-84
2023/05/13 09:53:26;;;;;;;;;;;;;;;20.47;37.40;102269.90;107807;1254;124199;-84
2023/05/13 09:55:55;;;;;;;;;;;;;;;20.46;37.35;102264.17;107865;1255;60747;-85
2023/05/13 09:58:23;;;;;;;;;;;;;;;20.49;37.41;102262.95;107398;1253;61193;-87
2023/05/13 10:01:02;;;;;;;;;;;;;;;20.54;37.19;102258.36;107505;1254;125035;-90
2023/05/13 10:03:32;;;;;;;;;;;;;;;20.58;37.20;102257.52;107462;1253;65831;-90
2023/05/13 10:06:03;;;;;;;;;;;;;;;20.62;37.12;102255.96;107483;1256;124108;-91
2023/05/13 10:08:30;;;;;;;;;;;;;;;20.63;37.03;102250.80;107434;1254;59585;-90
2023/05/13 10:10:59;;;;;;;;;;;;;;;20.67;37.08;102250.81;107851;1254;59937;-89
2023/05/13 10:13:27;;;;;;;;;;;;;;;20.68;36.79;102253.14;107759;1254;124334;-86
2023/05/13 10:15:54;;;;;;;;;;;;;;;20.67;36.71;102250.10;107823;1258;65821;-86
2023/05/13 10:18:26;;;;;;;;;;;;;;;20.74;36.75;102247.31;107638;1254;124602;-87
2023/05/13 10:20:53;;;;;;;;;;;;;;;20.81;36.52;102245.56;107761;1254;60327;-87
2023/05/13 10:23:27;;;;;;;;;;;;;;;20.85;36.41;102243.45;107436;1254;124438;-89
2023/05/13 10:26:02;;;;;;;;;;;;;;;20.86;35.98;102245.42;107494;1256;73368;-86
2023/05/13 10:28:31;;;;;;;;;;;;;;;20.84;35.92;102244.70;107358;1252;65857;-88
2023/05/13 10:31:28;;;;;;;;;;;;;;;20.86;35.70;102248.27;107496;1257;124293;-89
2023/05/13 10:33:57;;;;;;;;;;;;;;;20.82;35.38;102239.69;107503;1254;60440;-87
2023/05/13 10:36:42;;;;;;;;;;;;;;;20.85;35.44;102242.73;107836;1254;124295;-91
2023/05/13 10:45:51;;;;;;;;;;;;;;;21.04;35.09;102231.78;107881;1253;72618;-88
2023/05/13 10:48:19;;;;;;;;;;;;;;;20.93;34.99;102231.55;107744;1253;124206;-91
2023/05/13 10:50:56;;;;;;;;;;;;;;;20.88;34.88;102227.23;107864;1254;60140;-93
2023/05/13 10:53:25;;;;;;;;;;;;;;;20.90;34.75;102229.38;107844;1253;124486;-86
2023/05/13 10:56:07;;;;;;;;;;;;;;;20.98;34.64;102231.73;107830;1254;67511;-89
2023/05/13 10:58:37;;;;;;;;;;;;;;;21.14;34.48;102228.25;107584;1256;71812;-91
2023/05/13 11:01:23;;;;;;;;;;;;;;;21.43;34.41;102231.60;107384;1254;124087;-90
2023/05/13 11:06:56;;;;;;;;;;;;;;;21.72;33.36;102233.14;107878;1253;124631;-91
2023/05/13 11:09:27;;;;;;;;;;;;;;;21.71;33.15;102226.34;107771;1254;67060;-87
2023/05/13 11:12:18;;;;;;;;;;;;;;;21.79;33.09;102227.26;107648;1253;124289;-95
2023/05/13 11:14:50;;;;;;;;;;;;;;;21.86;32.75;102224.42;107868;1253;59448;-92
2023/05/13 11:17:19;;;;;;;;;;;;;;;21.93;32.50;102220.85;107622;1253;124417;-85
2023/05/13 11:19:58;;;;;;;;;;;;;;;21.93;32.13;102217.10;107667;1253;75215;-89
2023/05/13 11:25:33;;;;;;;;;;;;;;;21.72;31.95;102212.23;107840;1252;123924;-91
2023/05/13 11:28:00;;;;;;;;;;;;;;;21.64;31.69;102214.55;108095;1253;59885;-87
2023/05/13 11:30:47;;;;;;;;;;;;;;;21.53;31.71;102214.33;108145;1254;124009;-85
2023/05/13 11:36:39;;;;;;;;;;;;;;;21.53;31.59;102221.66;107806;1253;123710;-91
2023/05/13 11:39:10;;;;;;;;;;;;;;;21.53;31.67;102218.61;107692;1253;70907;-87
2023/05/13 11:41:49;;;;;;;;;;;;;;;21.65;31.59;102215.80;107557;1253;124693;-87
2023/05/13 11:44:18;;;;;;;;;;;;;;;21.85;31.48;102216.20;107838;1253;61313;-87
2023/05/13 11:46:58;;;;;;;;;;;;;;;21.94;31.50;102212.81;107688;1254;74666;-92
2023/05/13 11:49:32;;;;;;;;;;;;;;;22.03;31.49;102208.70;107959;1254;124905;-88
2023/05/13 11:52:02;;;;;;;;;;;;;;;22.10;31.35;102208.52;109191;1253;71369;-87
2023/05/13 11:54:29;;;;;;;;;;;;;;;22.18;31.37;102205.30;109248;1253;123935;-88
2023/05/13 11:56:56;;;;;;;;;;;;;;;22.20;30.86;102208.71;108973;1254;60138;-88
2023/05/13 11:59:32;;;;;;;;;;;;;;;22.08;30.86;102212.27;107889;1254;124823;-87
2023/05/13 12:02:12;;;;;;;;;;;;;;;21.97;30.76;102221.21;108215;1253;65463;-88
2023/05/13 12:04:45;;;;;;;;;;;;;;;21.80;30.59;102216.37;108343;1253;72478;-89
2023/05/13 12:07:25;;;;;;;;;;;;;;;21.69;30.61;102212.59;107825;1253;124230;-88
2023/05/13 12:09:57;;;;;;;;;;;;;;;21.72;30.86;102210.99;107477;1253;60959;-88
2023/05/13 12:12:31;;;;;;;;;;;;;;;21.90;30.79;102215.48;108019;1253;124347;-87
2023/05/13 12:15:01;;;;;;;;;;;;;;;22.03;30.78;102214.42;108202;1254;66002;-88
2023/05/13 12:17:29;;;;;;;;;;;;;;;22.09;30.55;102219.44;107897;1254;247254;-89
2023/05/13 12:20:12;;;;;;;;;;;;;;;22.14;30.65;102205.13;108136;1252;60461;-89
2023/05/13 12:22:42;;;;;;;;;;;;;;;22.32;30.70;102206.60;108414;1253;59726;-89
2023/05/13 12:25:29;;;;;;;;;;;;;;;22.44;30.73;102208.20;108231;1253;124447;-89
2023/05/13 12:27:58;;;;;;;;;;;;;;;22.64;31.03;102205.66;108146;1254;66893;-88
2023/05/13 12:30:32;;;;;;;;;;;;;;;22.75;30.96;102208.15;108173;1254;124029;-89
2023/05/13 12:32:59;;;;;;;;;;;;;;;22.72;30.77;102206.17;108078;1254;60315;-89
2023/05/13 12:35:38;;;;;;;;;;;;;;;22.54;30.65;102209.44;107832;1254;124513;-88
2023/05/13 12:38:06;;;;;;;;;;;;;;;22.27;30.59;102208.90;107936;1253;74933;-90
2023/05/13 12:40:41;;;;;;;;;;;;;;;22.09;30.62;102207.63;107958;1254;67090;-90
2023/05/13 12:43:08;;;;;;;;;;;;;;;21.99;30.31;102211.91;107960;1254;124281;-90
2023/05/13 12:45:39;;;;;;;;;;;;;;;21.88;30.21;102211.90;107970;1256;60649;-88
2023/05/13 12:48:07;;;;;;;;;;;;;;;21.86;30.29;102212.44;108194;1252;124079;-89
2023/05/13 12:50:38;;;;;;;;;;;;;;;21.78;30.17;102212.96;108363;1253;74646;-89
2023/05/13 12:53:05;;;;;;;;;;;;;;;21.69;30.18;102207.94;108693;1253;65906;-85
2023/05/13 12:55:35;;;;;;;;;;;;;;;21.62;30.27;102212.58;108398;1254;124694;-86
2023/05/13 12:58:22;;;;;;;;;;;;;;;21.65;30.55;102208.30;108228;1254;60821;-88
2023/05/13 13:01:23;;;;;;;;;;;;;;;21.79;30.81;102209.56;107738;1256;124154;-87
2023/05/13 13:04:10;;;;;;;;;;;;;;;21.83;31.01;102205.64;107833;1253;75653;-89
2023/05/13 13:07:20;;;;;;;;;;;;;;;21.75;31.19;102207.42;107668;1253;124070;-87